createdAt,value
2022-09-21T00:01:23.311Z,8.60
2022-09-21T00:03:58.804Z,8.54
2022-09-21T00:06:27.561Z,8.45
2022-09-21T00:08:55.574Z,8.38
2022-09-21T00:11:26.188Z,8.31
2022-09-21T00:13:55.377Z,8.27
2022-09-21T00:16:23.952Z,8.23
2022-09-21T00:18:50.853Z,8.17
2022-09-21T00:21:18.290Z,8.13
2022-09-21T00:23:45.787Z,8.06
2022-09-21T00:26:15.690Z,8.01
2022-09-21T00:28:43.776Z,7.98
2022-09-21T00:31:12.685Z,7.97
2022-09-21T00:33:40.943Z,7.96
2022-09-21T00:36:14.234Z,7.92
2022-09-21T00:38:41.709Z,7.89
2022-09-21T00:41:10.352Z,7.88
2022-09-21T00:43:40.888Z,7.87
2022-09-21T00:46:16.317Z,7.89
2022-09-21T00:48:43.609Z,7.90
2022-09-21T00:51:10.773Z,7.93
2022-09-21T00:53:38.863Z,7.96
2022-09-21T00:56:07.433Z,7.94
2022-09-21T00:58:40.595Z,8.00
2022-09-21T01:01:07.502Z,8.05
2022-09-21T01:03:34.473Z,8.07
2022-09-21T01:06:01.329Z,8.08
2022-09-21T01:08:29.247Z,8.07
2022-09-21T01:11:14.639Z,8.11
2022-09-21T01:13:59.998Z,8.14
2022-09-21T01:16:39.312Z,8.12
2022-09-21T01:19:21.443Z,8.13
2022-09-21T01:22:26.618Z,8.13
2022-09-21T01:25:05.664Z,8.16
2022-09-21T01:27:52.515Z,8.16
2022-09-21T01:30:21.797Z,8.16
2022-09-21T01:33:07.416Z,8.21
2022-09-21T01:35:39.924Z,8.20
2022-09-21T01:38:32.706Z,8.14
2022-09-21T01:41:04.308Z,8.15
2022-09-21T01:43:48.496Z,8.10
2022-09-21T01:46:19.850Z,8.10
2022-09-21T01:48:52.158Z,8.00
2022-09-21T01:51:21.977Z,8.02
2022-09-21T01:53:53.165Z,8.01
2022-09-21T01:56:33.294Z,8.02
2022-09-21T01:59:18.382Z,8.02
2022-09-21T02:01:53.718Z,8.00
2022-09-21T02:04:20.595Z,7.95
2022-09-21T02:06:49.405Z,7.89
2022-09-21T02:09:17.367Z,7.85
2022-09-21T02:11:45.038Z,7.83
2022-09-21T02:14:18.205Z,7.80
2022-09-21T02:16:55.380Z,7.74
2022-09-21T02:19:55.683Z,7.67
2022-09-21T02:23:25.061Z,7.60
2022-09-21T02:26:10.664Z,7.44
2022-09-21T02:29:01.549Z,7.39
2022-09-21T02:31:56.744Z,7.46
2022-09-21T02:34:45.751Z,7.44
2022-09-21T02:37:35.621Z,7.43
2022-09-21T02:40:30.444Z,7.50
2022-09-21T02:43:06.659Z,7.55
2022-09-21T02:45:42.355Z,7.54
2022-09-21T02:48:16.769Z,7.50
2022-09-21T02:50:52.005Z,7.47
2022-09-21T02:53:26.222Z,7.41
2022-09-21T02:55:56.681Z,7.35
2022-09-21T02:58:27.105Z,7.28
2022-09-21T03:00:57.072Z,7.25
2022-09-21T03:03:25.094Z,7.19
2022-09-21T03:05:55.762Z,7.14
2022-09-21T03:08:22.577Z,7.11
2022-09-21T03:10:50.713Z,7.08
2022-09-21T03:13:18.951Z,7.10
2022-09-21T03:15:46.290Z,7.07
2022-09-21T03:18:13.374Z,7.04
2022-09-21T03:20:46.002Z,6.98
2022-09-21T03:23:13.604Z,6.94
2022-09-21T03:25:40.599Z,6.90
2022-09-21T03:28:07.426Z,6.90
2022-09-21T03:30:35.559Z,6.90
2022-09-21T03:33:04.873Z,6.93
2022-09-21T03:35:33.962Z,6.98
2022-09-21T03:38:01.410Z,7.03
2022-09-21T03:40:28.595Z,6.98
2022-09-21T03:42:55.665Z,6.99
2022-09-21T03:45:23.018Z,7.04
2022-09-21T03:47:49.850Z,7.00
2022-09-21T03:50:17.220Z,6.94
2022-09-21T03:52:44.022Z,6.93
2022-09-21T03:55:10.777Z,6.93
2022-09-21T03:57:38.460Z,6.89
2022-09-21T04:00:09.199Z,6.84
2022-09-21T04:02:37.501Z,6.86
2022-09-21T04:05:04.618Z,6.92
2022-09-21T04:07:35.175Z,6.93
2022-09-21T04:10:04.049Z,6.99
2022-09-21T04:12:31.278Z,7.00
2022-09-21T04:14:58.278Z,7.08
2022-09-21T04:17:25.082Z,7.11
2022-09-21T04:19:52.122Z,7.12
2022-09-21T04:22:19.043Z,7.15
2022-09-21T04:24:45.938Z,7.19
2022-09-21T04:27:12.956Z,7.21
2022-09-21T04:29:39.793Z,7.22
2022-09-21T04:32:07.030Z,7.20
2022-09-21T04:34:33.777Z,7.16
2022-09-21T04:37:00.559Z,7.10
2022-09-21T04:39:27.365Z,7.08
2022-09-21T04:41:54.402Z,7.07
2022-09-21T04:44:21.198Z,7.11
2022-09-21T04:46:48.064Z,7.19
2022-09-21T04:49:14.824Z,7.26
2022-09-21T04:51:41.720Z,7.30
2022-09-21T04:54:08.547Z,7.36
2022-09-21T04:56:38.190Z,7.40
2022-09-21T04:59:05.304Z,7.39
2022-09-21T05:01:32.265Z,7.35
2022-09-21T05:04:01.875Z,7.32
2022-09-21T05:06:33.766Z,7.32
2022-09-21T05:09:19.457Z,7.32
2022-09-21T05:11:46.565Z,7.36
2022-09-21T05:14:13.476Z,7.45
2022-09-21T05:16:40.360Z,7.50
2022-09-21T05:19:07.633Z,7.64
2022-09-21T05:21:34.677Z,7.70
2022-09-21T05:24:01.834Z,7.80
2022-09-21T05:26:28.620Z,7.87
2022-09-21T05:28:55.753Z,7.87
2022-09-21T05:31:36.155Z,7.93
2022-09-21T05:34:18.978Z,7.92
2022-09-21T05:37:18.441Z,7.78
2022-09-21T05:39:45.801Z,7.88
2022-09-21T05:42:13.108Z,7.94
2022-09-21T05:44:40.220Z,7.99
2022-09-21T05:47:38.456Z,8.02
2022-09-21T05:50:23.776Z,8.11
2022-09-21T05:53:09.476Z,8.15
2022-09-21T05:55:56.727Z,8.20
2022-09-21T05:58:32.518Z,8.27
2022-09-21T06:01:11.452Z,8.31
2022-09-21T06:03:39.288Z,8.41
2022-09-21T06:06:09.011Z,8.44
2022-09-21T06:08:35.952Z,8.43
2022-09-21T06:11:02.858Z,8.48
2022-09-21T06:13:29.743Z,8.57
2022-09-21T06:15:57.114Z,8.62
2022-09-21T06:18:23.893Z,8.70
2022-09-21T06:20:50.716Z,8.80
2022-09-21T06:23:17.563Z,8.88
2022-09-21T06:25:44.394Z,9.01
2022-09-21T06:28:13.226Z,9.11
2022-09-21T06:30:42.422Z,9.23
2022-09-21T06:33:09.829Z,9.39
2022-09-21T06:35:36.955Z,9.50
2022-09-21T06:38:06.690Z,9.66
2022-09-21T06:40:35.347Z,9.78
2022-09-21T06:43:04.656Z,9.87
2022-09-21T06:45:31.677Z,9.90
2022-09-21T06:47:58.867Z,9.98
2022-09-21T06:53:15.602Z,10.24
2022-09-21T06:55:42.663Z,10.45
2022-09-21T06:58:11.437Z,10.66
2022-09-21T07:00:38.406Z,10.77
2022-09-21T07:03:05.853Z,10.94
2022-09-21T07:05:34.226Z,11.30
2022-09-21T07:08:01.405Z,11.56
2022-09-21T07:10:28.724Z,11.71
2022-09-21T07:12:55.918Z,12.06
2022-09-21T07:15:23.717Z,11.67
2022-09-21T07:17:52.260Z,11.79
2022-09-21T07:20:19.550Z,11.68
2022-09-21T07:23:08.529Z,11.83
2022-09-21T07:25:35.282Z,12.27
2022-09-21T07:28:02.631Z,12.53
2022-09-21T07:30:29.416Z,13.10
2022-09-21T07:32:56.324Z,13.44
2022-09-21T07:35:23.156Z,13.89
2022-09-21T07:37:50.078Z,14.34
2022-09-21T07:40:17.888Z,14.78
2022-09-21T07:42:46.624Z,14.68
2022-09-21T07:45:13.545Z,14.32
2022-09-21T07:47:40.377Z,14.50
2022-09-21T07:50:07.548Z,14.58
2022-09-21T07:52:35.160Z,14.68
2022-09-21T07:55:01.944Z,15.46
2022-09-21T07:57:47.332Z,15.46
2022-09-21T08:00:14.887Z,16.16
2022-09-21T08:02:46.595Z,16.48
2022-09-21T08:05:14.506Z,16.61
2022-09-21T08:07:41.799Z,16.07
2022-09-21T08:10:09.854Z,14.97
2022-09-21T08:12:36.700Z,15.54
2022-09-21T08:15:03.821Z,16.06
2022-09-21T08:17:30.677Z,16.10
2022-09-21T08:20:18.576Z,16.74
2022-09-21T08:23:06.225Z,16.75
2022-09-21T08:25:34.371Z,17.60
2022-09-21T08:38:48.429Z,17.81
2022-09-21T08:41:40.688Z,17.81
2022-09-21T08:44:16.645Z,17.02
2022-09-21T08:46:46.396Z,17.56
2022-09-21T08:49:19.878Z,17.08
2022-09-21T08:52:00.624Z,16.68
2022-09-21T08:54:42.449Z,16.21
2022-09-21T08:57:16.316Z,16.73
2022-09-21T08:59:46.268Z,17.50
2022-09-21T09:02:44.144Z,18.05
2022-09-21T09:05:35.934Z,18.72
2022-09-21T09:08:22.020Z,19.28
2022-09-21T09:11:25.111Z,19.19
2022-09-21T09:14:11.724Z,19.25
2022-09-21T09:16:38.513Z,18.63
2022-09-21T09:19:32.793Z,19.00
2022-09-21T09:22:04.407Z,19.49
2022-09-21T09:24:41.503Z,20.06
2022-09-21T09:27:18.818Z,19.64
2022-09-21T09:30:03.904Z,20.10
2022-09-21T09:32:44.233Z,20.53
2022-09-21T09:35:28.692Z,20.14
2022-09-21T09:38:00.028Z,20.85
2022-09-21T09:41:01.435Z,21.38
2022-09-21T09:43:40.250Z,21.44
2022-09-21T09:46:21.955Z,21.45
2022-09-21T09:49:18.846Z,20.96
2022-09-21T09:51:46.713Z,22.10
2022-09-21T09:54:16.067Z,22.79
2022-09-21T09:56:43.838Z,20.77
2022-09-21T09:59:19.996Z,22.78
2022-09-21T10:01:47.511Z,22.86
2022-09-21T10:04:17.721Z,22.56
2022-09-21T10:06:46.684Z,23.15
2022-09-21T10:09:32.585Z,23.69
2022-09-21T10:12:15.744Z,23.15
2022-09-21T10:14:49.635Z,23.36
2022-09-21T10:17:18.673Z,23.11
2022-09-21T10:19:46.212Z,22.98
2022-09-21T10:22:19.062Z,24.05
2022-09-21T10:24:56.343Z,23.84
2022-09-21T10:27:45.138Z,22.64
2022-09-21T10:30:34.977Z,21.81
2022-09-21T10:33:02.276Z,20.99
2022-09-21T10:35:29.996Z,19.94
2022-09-21T10:38:22.605Z,21.41
2022-09-21T10:40:50.440Z,21.76
2022-09-21T10:43:43.673Z,22.85
2022-09-21T10:46:11.720Z,23.34
2022-09-21T10:48:38.851Z,24.88
2022-09-21T10:51:05.868Z,22.69
2022-09-21T10:53:36.190Z,21.07
2022-09-21T10:56:15.617Z,21.00
2022-09-21T10:59:20.761Z,22.92
2022-09-21T11:01:50.486Z,25.01
2022-09-21T11:04:36.243Z,25.04
2022-09-21T11:07:25.201Z,25.20
2022-09-21T11:09:58.624Z,24.21
2022-09-21T11:12:49.059Z,24.92
2022-09-21T11:15:20.316Z,25.59
2022-09-21T11:18:18.654Z,24.78
2022-09-21T11:20:58.517Z,24.80
2022-09-21T11:24:02.501Z,25.14
2022-09-21T11:26:37.903Z,23.46
2022-09-21T11:32:19.326Z,26.01
2022-09-21T11:35:17.028Z,25.19
2022-09-21T11:37:50.273Z,24.11
2022-09-21T11:41:14.288Z,22.52
2022-09-21T11:44:19.338Z,20.51
2022-09-21T11:47:02.929Z,21.38
2022-09-21T11:49:37.852Z,23.11
2022-09-21T11:52:47.465Z,24.33
2022-09-21T11:55:44.557Z,25.48
2022-09-21T11:58:23.279Z,26.91
2022-09-21T12:00:51.359Z,26.10
2022-09-21T12:03:36.181Z,23.96
2022-09-21T12:06:32.762Z,23.29
2022-09-21T12:09:24.529Z,21.62
2022-09-21T12:11:57.615Z,20.61
2022-09-21T12:14:45.942Z,20.22
2022-09-21T12:17:27.860Z,21.17
2022-09-21T12:20:12.906Z,23.05
2022-09-21T12:22:44.303Z,23.98
2022-09-21T12:25:17.183Z,25.34
2022-09-21T12:27:50.622Z,25.24
2022-09-21T12:30:22.647Z,24.93
2022-09-21T12:32:58.313Z,25.51
2022-09-21T12:35:39.420Z,25.48
2022-09-21T12:38:16.485Z,25.82
2022-09-21T12:40:57.737Z,25.15
2022-09-21T12:43:58.701Z,26.40
2022-09-21T12:46:37.953Z,27.30
2022-09-21T12:49:28.323Z,25.81
2022-09-21T12:52:00.817Z,26.02
2022-09-21T12:54:30.457Z,24.13
2022-09-21T12:57:38.168Z,24.48
2022-09-21T13:00:07.457Z,24.93
2022-09-21T13:02:42.010Z,24.26
2022-09-21T13:05:35.146Z,23.32
2022-09-21T13:08:14.170Z,24.11
2022-09-21T13:11:05.324Z,23.96
2022-09-21T13:13:38.945Z,24.31
2022-09-21T13:16:07.931Z,23.36
2022-09-21T13:18:37.983Z,24.21
2022-09-21T13:21:40.460Z,25.53
2022-09-21T13:24:26.174Z,24.68
2022-09-21T13:26:56.143Z,25.37
2022-09-21T13:29:22.989Z,24.84
2022-09-21T13:32:14.362Z,26.47
2022-09-21T13:34:42.963Z,25.16
2022-09-21T13:37:11.165Z,23.29
2022-09-21T13:40:01.340Z,22.90
2022-09-21T13:42:34.898Z,22.91
2022-09-21T13:45:14.993Z,22.20
2022-09-21T13:47:44.363Z,22.71
2022-09-21T13:50:43.077Z,22.88
2022-09-21T13:53:23.788Z,23.67
2022-09-21T13:56:12.010Z,23.34
2022-09-21T13:58:48.032Z,24.15
2022-09-21T14:01:42.477Z,24.00
2022-09-21T14:04:39.486Z,24.39
2022-09-21T14:07:08.107Z,25.09
2022-09-21T14:09:53.690Z,24.46
2022-09-21T14:12:25.143Z,23.71
2022-09-21T14:15:12.589Z,23.53
2022-09-21T14:17:40.989Z,22.41
2022-09-21T14:20:30.296Z,23.29
2022-09-21T14:23:16.410Z,23.34
2022-09-21T14:25:56.875Z,21.66
2022-09-21T14:28:51.325Z,20.89
2022-09-21T14:31:34.399Z,20.60
2022-09-21T14:34:04.664Z,20.32
2022-09-21T14:36:42.140Z,19.82
2022-09-21T14:39:32.079Z,19.77
2022-09-21T14:42:04.779Z,19.34
2022-09-21T14:44:35.387Z,19.09
2022-09-21T14:47:05.152Z,18.97
2022-09-21T14:49:40.475Z,19.05
2022-09-21T14:52:32.367Z,18.74
2022-09-21T14:55:25.125Z,18.80
2022-09-21T14:58:16.420Z,18.83
2022-09-21T15:00:46.285Z,18.72
2022-09-21T15:03:25.929Z,18.56
2022-09-21T15:06:23.489Z,18.44
2022-09-21T15:09:25.001Z,18.35
2022-09-21T15:12:07.446Z,18.27
2022-09-21T15:14:41.374Z,18.19
2022-09-21T15:17:29.965Z,18.13
2022-09-21T15:20:15.162Z,17.87
2022-09-21T15:22:45.360Z,18.00
2022-09-21T15:25:13.496Z,17.91
2022-09-21T15:27:44.752Z,17.81
2022-09-21T15:30:24.544Z,17.85
2022-09-21T15:32:56.674Z,17.72
2022-09-21T15:35:32.684Z,17.77
2022-09-21T15:38:01.386Z,17.56
2022-09-21T15:40:32.598Z,17.57
2022-09-21T15:43:01.121Z,17.45
2022-09-21T15:45:37.278Z,17.36
2022-09-21T15:48:13.542Z,17.41
2022-09-21T15:50:43.203Z,17.28
2022-09-21T15:53:22.004Z,17.30
2022-09-21T15:55:49.638Z,17.18
2022-09-21T15:58:46.035Z,17.04
2022-09-21T16:01:16.190Z,17.14
2022-09-21T16:03:43.820Z,17.13
2022-09-21T16:06:45.260Z,16.93
2022-09-21T16:09:23.948Z,16.90
2022-09-21T16:11:54.251Z,16.82
2022-09-21T16:14:40.654Z,16.70
2022-09-21T16:17:13.612Z,16.61
2022-09-21T16:19:59.809Z,16.41
2022-09-21T16:22:38.051Z,16.10
2022-09-21T16:25:19.400Z,16.05
2022-09-21T16:27:53.917Z,16.06
2022-09-21T16:30:42.564Z,15.97
2022-09-21T16:33:39.244Z,15.83
2022-09-21T16:36:26.032Z,15.68
2022-09-21T16:38:56.545Z,15.56
2022-09-21T16:41:32.296Z,15.40
2022-09-21T16:44:00.557Z,15.34
2022-09-21T16:46:27.683Z,15.32
2022-09-21T16:48:57.433Z,15.21
2022-09-21T16:51:27.086Z,15.06
2022-09-21T16:53:55.969Z,15.03
2022-09-21T16:56:22.925Z,14.89
2022-09-21T16:58:49.758Z,14.76
2022-09-21T17:01:20.794Z,14.66
2022-09-21T17:03:48.195Z,14.62
2022-09-21T17:06:21.644Z,14.46
2022-09-21T17:08:49.692Z,14.36
2022-09-21T17:11:20.048Z,14.38
2022-09-21T17:13:48.158Z,14.22
2022-09-21T17:16:18.938Z,14.24
2022-09-21T17:18:51.497Z,14.11
2022-09-21T17:21:18.311Z,14.06
2022-09-21T17:23:45.470Z,13.90
2022-09-21T17:26:19.397Z,13.93
2022-09-21T17:28:46.299Z,13.90
2022-09-21T17:31:16.420Z,13.76
2022-09-21T17:33:43.635Z,13.77
2022-09-21T17:36:14.878Z,13.70
2022-09-21T17:38:42.505Z,13.63
2022-09-21T17:41:22.058Z,13.54
2022-09-21T17:44:03.589Z,13.58
2022-09-21T17:46:42.948Z,13.44
2022-09-21T17:49:11.440Z,13.55
2022-09-21T17:51:57.226Z,13.41
2022-09-21T17:54:24.333Z,13.37
2022-09-21T17:56:58.055Z,13.30
2022-09-21T17:59:35.015Z,13.19
2022-09-21T18:02:03.586Z,13.22
2022-09-21T18:04:34.682Z,13.14
2022-09-21T18:07:03.301Z,13.07
2022-09-21T18:09:30.495Z,13.02
2022-09-21T18:12:18.233Z,12.91
2022-09-21T18:14:53.049Z,12.94
2022-09-21T18:17:25.838Z,12.86
2022-09-21T18:20:31.419Z,12.77
2022-09-21T18:23:19.470Z,12.79
2022-09-21T18:25:49.955Z,12.63
2022-09-21T18:28:31.556Z,12.59
2022-09-21T18:31:25.152Z,12.48
2022-09-21T18:33:56.909Z,12.55
2022-09-21T18:36:42.748Z,12.51
2022-09-21T18:39:31.411Z,12.52
2022-09-21T18:42:22.570Z,12.46
2022-09-21T18:45:10.624Z,12.33
2022-09-21T18:47:48.338Z,12.28
2022-09-21T18:50:22.362Z,12.24
2022-09-21T18:53:06.578Z,12.21
2022-09-21T18:55:33.844Z,12.16
2022-09-21T18:58:01.499Z,12.15
2022-09-21T19:00:35.147Z,12.14
2022-09-21T19:03:22.644Z,12.05
2022-09-21T19:06:07.732Z,12.07
2022-09-21T19:08:43.565Z,11.97
2022-09-21T19:11:22.849Z,11.90
2022-09-21T19:14:07.545Z,11.85
2022-09-21T19:16:40.097Z,11.75
2022-09-21T19:19:19.891Z,11.49
2022-09-21T19:22:12.091Z,11.56
2022-09-21T19:25:16.626Z,11.45
2022-09-21T19:27:57.309Z,11.49
2022-09-21T19:30:24.374Z,11.44
2022-09-21T19:32:53.235Z,11.41
2022-09-21T19:35:28.893Z,11.42
2022-09-21T19:37:58.309Z,11.41
2022-09-21T19:40:32.418Z,11.42
2022-09-21T19:43:13.392Z,11.38
2022-09-21T19:45:45.161Z,11.38
2022-09-21T19:48:15.661Z,11.35
2022-09-21T19:50:54.711Z,11.34
2022-09-21T19:53:41.116Z,11.22
2022-09-21T19:56:33.141Z,11.14
2022-09-21T19:59:19.781Z,11.08
2022-09-21T20:01:53.679Z,11.08
2022-09-21T20:04:48.911Z,10.97
2022-09-21T20:07:21.724Z,10.90
2022-09-21T20:10:24.753Z,10.91
2022-09-21T20:13:13.180Z,10.90
2022-09-21T20:15:49.802Z,10.88
2022-09-21T20:18:41.563Z,10.87
2022-09-21T20:21:13.871Z,10.72
2022-09-21T20:23:41.251Z,10.63
2022-09-21T20:26:26.254Z,10.69
2022-09-21T20:28:54.312Z,10.68
2022-09-21T20:31:26.333Z,10.80
2022-09-21T20:33:53.161Z,10.77
2022-09-21T20:36:20.074Z,10.76
2022-09-21T20:38:46.905Z,10.72
2022-09-21T20:41:16.428Z,10.80
2022-09-21T20:43:43.456Z,10.85
2022-09-21T20:46:11.483Z,10.78
2022-09-21T20:48:38.469Z,10.77
2022-09-21T20:51:06.251Z,10.71
2022-09-21T20:53:34.184Z,10.71
2022-09-21T20:56:02.059Z,10.64
2022-09-21T20:58:30.275Z,10.64
2022-09-21T21:01:04.245Z,10.58
2022-09-21T21:03:31.172Z,10.60
2022-09-21T21:06:12.239Z,10.53
2022-09-21T21:08:39.432Z,10.51
2022-09-21T21:11:06.845Z,10.59
2022-09-21T21:13:33.914Z,10.55
2022-09-21T21:16:00.853Z,10.48
2022-09-21T21:18:27.758Z,10.45
2022-09-21T21:20:54.571Z,10.50
2022-09-21T21:23:21.441Z,10.43
2022-09-21T21:25:49.111Z,10.48
2022-09-21T21:28:16.029Z,10.42
2022-09-21T21:30:42.852Z,10.40
2022-09-21T21:33:10.235Z,10.36
2022-09-21T21:35:37.515Z,10.32
2022-09-21T21:38:04.302Z,10.31
2022-09-21T21:40:31.446Z,10.30
2022-09-21T21:42:58.172Z,10.22
2022-09-21T21:45:24.989Z,10.18
2022-09-21T21:47:51.826Z,10.08
2022-09-21T21:50:18.631Z,10.08
2022-09-21T21:52:45.483Z,10.05
2022-09-21T21:55:12.552Z,9.97
2022-09-21T21:57:40.051Z,9.92
2022-09-21T22:00:08.948Z,9.90
2022-09-21T22:02:35.896Z,9.81
2022-09-21T22:05:02.712Z,9.77
2022-09-21T22:07:29.684Z,9.76
2022-09-21T22:09:56.446Z,9.75
2022-09-21T22:12:23.367Z,9.73
2022-09-21T22:14:50.162Z,9.66
2022-09-21T22:17:16.990Z,9.61
2022-09-21T22:19:44.065Z,9.57
2022-09-21T22:22:10.886Z,9.52
2022-09-21T22:24:37.608Z,9.54
2022-09-21T22:27:04.549Z,9.51
2022-09-21T22:29:31.488Z,9.44
2022-09-21T22:31:58.358Z,9.54
2022-09-21T22:34:25.318Z,9.52
2022-09-21T22:36:52.115Z,9.49
2022-09-21T22:39:18.904Z,9.47
2022-09-21T22:41:45.628Z,9.49
2022-09-21T22:44:12.434Z,9.44
2022-09-21T22:46:39.406Z,9.45
2022-09-21T22:49:06.421Z,9.45
2022-09-21T22:51:33.876Z,9.29
2022-09-21T22:54:01.613Z,9.25
2022-09-21T22:56:30.794Z,9.19
2022-09-21T22:59:03.665Z,9.17
2022-09-21T23:01:33.444Z,9.06
2022-09-21T23:04:03.072Z,9.02
2022-09-21T23:06:33.476Z,8.96
2022-09-21T23:09:02.422Z,8.88
2022-09-21T23:11:33.203Z,8.83
2022-09-21T23:14:00.735Z,8.76
2022-09-21T23:16:28.984Z,8.75
2022-09-21T23:18:57.551Z,8.70
2022-09-21T23:21:27.371Z,8.80
2022-09-21T23:24:02.407Z,8.77
2022-09-21T23:26:32.170Z,8.77
2022-09-21T23:29:01.333Z,8.73
2022-09-21T23:31:29.869Z,8.72
2022-09-21T23:33:59.863Z,8.67
2022-09-21T23:36:28.881Z,8.61
2022-09-21T23:38:56.000Z,8.61
2022-09-21T23:41:34.458Z,8.61
2022-09-21T23:44:01.835Z,8.62
2022-09-21T23:46:32.390Z,8.61
2022-09-21T23:49:00.066Z,8.57
2022-09-21T23:51:27.551Z,8.53
2022-09-21T23:53:54.945Z,8.51
2022-09-21T23:56:23.467Z,8.36
2022-09-21T23:58:50.990Z,8.36
